Terminal Aerodrome Forecast
Issued by NWS Sioux Falls, SD

Home | Current Version | Previous Version | Text Only | Print | Product List | Glossary On
Versions: 1 2 3 4 5 6 7 8 9 10 11 12 13 14 15 16 17 18 19 20 21 22 23 24 25 26
835
FTUS43 KFSD 220550
TAFSUX
TAF
KSUX 220550Z 2206/2306 17007KT P6SM SCT080 WS013/21040KT
     FM220900 16006KT P6SM FEW200
     FM221700 13006KT P6SM BKN110
     FM230000 36009KT P6SM BKN070
     FM230200 35007KT P6SM SCT120=

USA.gov is the U.S. government's official web portal to all federal, state and local government web resources and services.